CYFBBGGH

Guest
Details From CYFB - Iqaluit
To BGGH - Nuuk
Flight Number -
Tags decoded
Created
Modified
Stats Distance 444 nm / 823 km
Max Altitude 0 ft / 0 m
Waypoints 2
Social Downloads 4
Likes 0
Share VATSIM

Download

Looking for another format? Having issues loading an existing format? Contact us
Advertisement - Login to hide

Notes

Requested: CYFB DUTUM N700A AVPUT BGGH Unmatched points: DUTUM N700A AVPUT

Route

CYFB BGGH

ID Type Via Altitude Latitude Longitude Leg Dist Tot Dist Heading (true) Name
O CYFB APT - 0 ft / 0 m 63.75657˚ -68.55606˚ - 0 nm - Iqaluit
O BGGH APT - 0 ft / 0 m 64.19302˚ -51.67645˚ 444 nm 444 nm 79° / 94° Nuuk

Altitude Profile

Advertisement - Login to hide

Weather


0- 5 10 15 20 25 30 35+ Temperature / ° C

Clouds and Precipitation
Forecast for 2018-05-26 18:00 UTC. Updated an hour ago

Ground ~20,000 ft ~40,000 ft Winds

CYFB

Details ICAO CYFB (YFB)
Name Iqaluit
Region Canada
Timezone America/Iqaluit (UTC-4.0)
Stats Elevation 110 ft / 34 m (AMSL)
Location 63.756565° -68.556058°
Runways 1
Magnetic Variation 27.370° W

METAR

CYFB 261800Z 33018G25KT 20SM -SN BKN024 OVC040 M03/M08 A2994 RMK SC5SC3 SLP144

Decode

TAF

TAF TAF CYFB 261738Z 2618/2718 32020KT P6SM OVC025 TEMPO 2618/2703 5SM -SHSNGS OVC015 BECMG 2622/2624 32010KT FM270300 32005KT P6SM BKN015 TEMPO 2703/2715 BKN025 BECMG 2706/2708 VRB03KT FM271500 15010KT P6SM BKN015 OVC060 TEMPO 2715/2718 3SM -SN RMK NXT FCST BY 270000Z

Decode

Departure Runways

ID Width Length Bearing (true) Bearing (mag) Surface Threshold Offset Overrun Length
17 200 ft / 61 m 8,605 ft / 2,623 m 135.58° 162.95° Asphalt 0 ft / 0 m 210 ft / 64 m
35 200 ft / 61 m 8,605 ft / 2,623 m 315.62° 342.99° Asphalt 0 ft / 0 m 243 ft / 74 m

BGGH

Details ICAO BGGH (GOH)
Name Nuuk
Region Greenland
Timezone America/Godthab (UTC-2.0)
Stats Elevation 283 ft / 86 m (AMSL)
Location 64.193021° -51.676454°
Runways 1
Magnetic Variation 26.859° W

METAR

BGGH 261750Z 24008KT 200V270 3500 -SHSN SCT004 OVC013 M01/M01 Q1005

Decode

TAF

Not found

Destination Runways

ID Width Length Bearing (true) Bearing (mag) Surface Threshold Offset Overrun Length
05 98 ft / 30 m 3,113 ft / 949 m 18.44° 45.30° Asphalt 0 ft / 0 m 0 ft / 0 m
23 98 ft / 30 m 3,113 ft / 949 m 198.44° 225.30° Asphalt 0 ft / 0 m 0 ft / 0 m

Popular Alternatives